createdAt,value
2023-02-05T00:00:12.875Z,.88
2023-02-05T00:00:44.127Z,.88
2023-02-05T00:01:00.504Z,.88
2023-02-05T00:01:32.115Z,.88
2023-02-05T00:02:04.713Z,.88
2023-02-05T00:02:36.129Z,1.00
2023-02-05T00:03:08.187Z,1.00
2023-02-05T00:03:40.238Z,1.00
2023-02-05T00:04:12.045Z,1.00
2023-02-05T00:04:28.223Z,1.00
2023-02-05T00:04:59.936Z,1.00
2023-02-05T00:05:44.317Z,.88
2023-02-05T00:06:16.176Z,.88
2023-02-05T00:06:47.867Z,.88
2023-02-05T00:07:19.897Z,.88
2023-02-05T00:07:51.977Z,.88
2023-02-05T00:08:23.768Z,.88
2023-02-05T00:08:55.875Z,.88
2023-02-05T00:09:28.034Z,.88
2023-02-05T00:09:59.896Z,.77
2023-02-05T00:10:32.042Z,.77
2023-02-05T00:11:04.236Z,.88
2023-02-05T00:11:35.812Z,.88
2023-02-05T00:12:07.737Z,.88
2023-02-05T00:12:39.654Z,.88
2023-02-05T00:13:11.571Z,.88
2023-02-05T00:13:27.755Z,.88
2023-02-05T00:14:11.650Z,.88
2023-02-05T00:14:43.640Z,.88
2023-02-05T00:15:16.898Z,.88
2023-02-05T00:15:47.506Z,.88
2023-02-05T00:16:19.695Z,.88
2023-02-05T00:16:51.619Z,.88
2023-02-05T00:17:23.400Z,.88
2023-02-05T00:17:55.459Z,.88
2023-02-05T00:18:11.515Z,.88
2023-02-05T00:18:43.463Z,1.00
2023-02-05T00:18:59.555Z,1.00
2023-02-05T00:19:31.289Z,1.00
2023-02-05T00:20:04.394Z,1.00
2023-02-05T00:20:35.438Z,1.00
2023-02-05T00:21:07.488Z,1.00
2023-02-05T00:21:39.593Z,1.00
2023-02-05T00:22:11.199Z,1.00
2023-02-05T00:22:27.385Z,1.00
2023-02-05T00:22:59.208Z,1.00
2023-02-05T00:23:43.371Z,.88
2023-02-05T00:24:15.033Z,.88
2023-02-05T00:24:47.196Z,.88
2023-02-05T00:25:19.587Z,.88
2023-02-05T00:25:51.120Z,.88
2023-02-05T00:26:23.100Z,.88
2023-02-05T00:26:55.161Z,.88
2023-02-05T00:27:11.216Z,.88
2023-02-05T00:27:55.342Z,.88
2023-02-05T00:28:27.091Z,.88
2023-02-05T00:28:59.088Z,.88
2023-02-05T00:29:30.859Z,.88
2023-02-05T00:30:05.810Z,.88
2023-02-05T00:30:35.169Z,.88
2023-02-05T00:31:06.874Z,.77
2023-02-05T00:31:38.925Z,.77
2023-02-05T00:32:10.856Z,.77
2023-02-05T00:32:42.906Z,.72
2023-02-05T00:33:14.617Z,.72
2023-02-05T00:33:46.925Z,.72
2023-02-05T00:34:18.929Z,.77
2023-02-05T00:34:50.807Z,.77
2023-02-05T00:35:22.993Z,.77
2023-02-05T00:35:54.800Z,.77
2023-02-05T00:36:26.679Z,.88
2023-02-05T00:36:58.811Z,.88
2023-02-05T00:37:30.515Z,.88
2023-02-05T00:38:02.692Z,.88
2023-02-05T00:38:34.597Z,.88
2023-02-05T00:39:06.743Z,.88
2023-02-05T00:39:38.381Z,.88
2023-02-05T00:40:10.838Z,1.00
2023-02-05T00:40:26.557Z,1.00
2023-02-05T00:40:58.721Z,1.00
2023-02-05T00:41:42.688Z,1.00
2023-02-05T00:42:14.348Z,1.00
2023-02-05T00:42:46.424Z,1.00
2023-02-05T00:43:18.366Z,1.11
2023-02-05T00:43:50.533Z,1.11
2023-02-05T00:44:22.374Z,1.11
2023-02-05T00:44:54.290Z,1.11
2023-02-05T00:45:11.877Z,1.11
2023-02-05T00:45:54.251Z,1.11
2023-02-05T00:46:26.394Z,1.11
2023-02-05T00:46:58.210Z,1.11
2023-02-05T00:47:30.234Z,1.11
2023-02-05T00:48:02.408Z,1.11
2023-02-05T00:48:34.252Z,1.11
2023-02-05T00:49:05.960Z,1.11
2023-02-05T00:49:38.021Z,1.11
2023-02-05T00:50:10.528Z,1.22
2023-02-05T00:50:42.134Z,1.22
2023-02-05T00:51:13.965Z,1.22
2023-02-05T00:51:46.058Z,1.11
2023-02-05T00:52:17.965Z,1.11
2023-02-05T00:52:50.296Z,1.11
2023-02-05T00:53:21.996Z,1.11
2023-02-05T00:53:53.843Z,1.11
2023-02-05T00:54:26.069Z,1.22
2023-02-05T00:54:57.849Z,1.22
2023-02-05T00:55:30.122Z,1.22
2023-02-05T00:56:02.218Z,1.22
2023-02-05T00:56:33.892Z,1.22
2023-02-05T00:57:05.820Z,1.22
2023-02-05T00:57:37.694Z,1.22
2023-02-05T00:58:09.977Z,1.22
2023-02-05T00:58:41.728Z,1.22
2023-02-05T00:59:13.810Z,1.11
2023-02-05T00:59:45.674Z,1.11
2023-02-05T01:00:18.204Z,1.11
2023-02-05T01:00:49.806Z,1.11
2023-02-05T01:01:21.862Z,1.11
2023-02-05T01:01:53.601Z,1.11
2023-02-05T01:02:09.842Z,1.11
2023-02-05T01:02:53.636Z,1.11
2023-02-05T01:03:25.845Z,1.11
2023-02-05T01:03:57.692Z,1.11
2023-02-05T01:04:29.668Z,1.11
2023-02-05T01:05:02.031Z,1.11
2023-02-05T01:05:33.931Z,1.11
2023-02-05T01:06:05.868Z,1.11
2023-02-05T01:06:37.425Z,1.11
2023-02-05T01:07:09.650Z,1.11
2023-02-05T01:07:41.570Z,1.11
2023-02-05T01:08:13.341Z,1.11
2023-02-05T01:08:45.236Z,1.11
2023-02-05T01:09:17.503Z,1.11
2023-02-05T01:09:49.669Z,1.11
2023-02-05T01:10:21.583Z,1.11
2023-02-05T01:10:53.316Z,1.00
2023-02-05T01:11:09.543Z,1.00
2023-02-05T01:11:41.214Z,1.00
2023-02-05T01:11:57.172Z,1.00
2023-02-05T01:12:29.449Z,1.00
2023-02-05T01:13:01.302Z,1.00
2023-02-05T01:13:33.110Z,1.11
2023-02-05T01:14:05.529Z,1.11
2023-02-05T01:14:37.277Z,1.00
2023-02-05T01:15:10.439Z,1.00
2023-02-05T01:15:25.023Z,1.00
2023-02-05T01:15:57.439Z,1.00
2023-02-05T01:16:41.150Z,1.00
2023-02-05T01:17:13.103Z,1.00
2023-02-05T01:17:44.898Z,1.00
2023-02-05T01:18:17.054Z,1.00
2023-02-05T01:18:48.957Z,1.00
2023-02-05T01:19:20.950Z,1.00
2023-02-05T01:19:52.949Z,1.00
2023-02-05T01:20:09.447Z,1.00
2023-02-05T01:20:52.968Z,1.00
2023-02-05T01:21:25.009Z,1.00
2023-02-05T01:21:56.954Z,1.00
2023-02-05T01:22:28.733Z,1.00
2023-02-05T01:23:00.753Z,1.00
2023-02-05T01:23:32.858Z,1.00
2023-02-05T01:24:05.055Z,1.00
2023-02-05T01:24:36.645Z,1.00
2023-02-05T01:25:09.185Z,1.00
2023-02-05T01:25:40.838Z,1.11
2023-02-05T01:26:12.716Z,1.11
2023-02-05T01:26:44.531Z,1.11
2023-02-05T01:27:16.601Z,1.22
2023-02-05T01:27:48.577Z,1.22
2023-02-05T01:28:20.742Z,1.22
2023-02-05T01:28:52.577Z,1.22
2023-02-05T01:29:24.488Z,1.11
2023-02-05T01:29:56.672Z,1.11
2023-02-05T01:30:29.029Z,1.11
2023-02-05T01:31:00.438Z,1.22
2023-02-05T01:31:32.695Z,1.22
2023-02-05T01:32:04.645Z,1.22
2023-02-05T01:32:36.328Z,1.22
2023-02-05T01:33:08.288Z,1.22
2023-02-05T01:33:24.295Z,1.22
2023-02-05T01:33:56.306Z,1.22
2023-02-05T01:34:40.488Z,1.22
2023-02-05T01:35:12.539Z,1.22
2023-02-05T01:35:44.217Z,1.22
2023-02-05T01:36:16.169Z,1.22
2023-02-05T01:36:48.159Z,1.22
2023-02-05T01:37:20.448Z,1.22
2023-02-05T01:37:52.035Z,1.22
2023-02-05T01:38:08.215Z,1.22
2023-02-05T01:38:52.111Z,1.22
2023-02-05T01:39:24.093Z,1.22
2023-02-05T01:39:56.366Z,1.22
2023-02-05T01:40:28.218Z,1.22
2023-02-05T01:41:00.158Z,1.22
2023-02-05T01:41:31.977Z,1.22
2023-02-05T01:42:04.214Z,1.22
2023-02-05T01:42:35.905Z,1.11
2023-02-05T01:43:07.861Z,1.11
2023-02-05T01:43:40.014Z,1.11
2023-02-05T01:44:11.988Z,1.11
2023-02-05T01:44:43.773Z,1.00
2023-02-05T01:45:17.223Z,1.00
2023-02-05T01:45:47.808Z,1.00
2023-02-05T01:46:19.890Z,1.00
2023-02-05T01:46:51.539Z,1.00
2023-02-05T01:47:07.854Z,1.00
2023-02-05T01:47:39.921Z,1.00
2023-02-05T01:48:23.638Z,1.00
2023-02-05T01:48:55.890Z,1.00
2023-02-05T01:49:27.514Z,1.11
2023-02-05T01:49:59.745Z,1.11
2023-02-05T01:50:31.873Z,1.11
2023-02-05T01:51:03.879Z,1.11
2023-02-05T01:51:35.471Z,1.11
2023-02-05T01:52:07.520Z,1.11
2023-02-05T01:52:23.657Z,1.11
2023-02-05T01:52:55.612Z,1.00
2023-02-05T01:53:39.555Z,1.00
2023-02-05T01:54:11.299Z,1.00
2023-02-05T01:54:43.500Z,1.00
2023-02-05T01:55:15.631Z,1.11
2023-02-05T01:55:47.488Z,1.11
2023-02-05T01:56:19.292Z,1.11
2023-02-05T01:56:51.266Z,1.11
2023-02-05T01:57:23.325Z,1.11
2023-02-05T01:57:55.476Z,1.11
2023-02-05T01:58:27.223Z,1.11
2023-02-05T01:58:59.445Z,1.11
2023-02-05T01:59:31.235Z,1.11
2023-02-05T02:00:06.171Z,1.11
2023-02-05T02:00:35.177Z,1.11
2023-02-05T02:01:07.250Z,1.11
2023-02-05T02:01:39.432Z,1.22
2023-02-05T02:02:11.135Z,1.22
2023-02-05T02:02:42.971Z,1.22
2023-02-05T02:03:15.001Z,1.22
2023-02-05T02:03:47.091Z,1.22
2023-02-05T02:04:19.073Z,1.22
2023-02-05T02:04:50.997Z,1.22
2023-02-05T02:05:23.208Z,1.22
2023-02-05T02:05:54.904Z,1.22
2023-02-05T02:06:26.975Z,1.22
2023-02-05T02:06:58.967Z,1.22
2023-02-05T02:07:30.898Z,1.22
2023-02-05T02:08:03.452Z,1.22
2023-02-05T02:08:34.896Z,1.22
2023-02-05T02:09:06.804Z,1.22
2023-02-05T02:09:22.855Z,1.22
2023-02-05T02:09:54.905Z,1.22
2023-02-05T02:10:39.248Z,1.22
2023-02-05T02:11:10.864Z,1.11
2023-02-05T02:11:42.592Z,1.11
2023-02-05T02:12:14.771Z,1.11
2023-02-05T02:12:46.652Z,1.11
2023-02-05T02:13:18.727Z,1.11
2023-02-05T02:13:50.588Z,1.11
2023-02-05T02:14:06.658Z,1.11
2023-02-05T02:14:50.704Z,1.11
2023-02-05T02:15:22.976Z,1.11
2023-02-05T02:15:54.510Z,1.11
2023-02-05T02:16:26.637Z,1.11
2023-02-05T02:16:58.419Z,1.11
2023-02-05T02:17:30.467Z,1.11
2023-02-05T02:18:03.023Z,1.11
2023-02-05T02:18:34.207Z,1.11
2023-02-05T02:19:06.494Z,1.00
2023-02-05T02:19:22.502Z,1.00
2023-02-05T02:20:06.635Z,.88
2023-02-05T02:20:38.602Z,.88
2023-02-05T02:21:10.317Z,.88
2023-02-05T02:21:42.404Z,.88
2023-02-05T02:22:14.307Z,.88
2023-02-05T02:22:46.306Z,.88
2023-02-05T02:23:18.311Z,.88
2023-02-05T02:23:50.361Z,.88
2023-02-05T02:24:22.243Z,.88
2023-02-05T02:24:54.166Z,.88
2023-02-05T02:25:26.432Z,.88
2023-02-05T02:25:58.056Z,.88
2023-02-05T02:26:32.635Z,1.00
2023-02-05T02:27:02.779Z,1.00
2023-02-05T02:27:33.957Z,1.00
2023-02-05T02:28:06.223Z,1.11
2023-02-05T02:28:38.188Z,1.11
2023-02-05T02:29:09.972Z,1.11
2023-02-05T02:29:42.034Z,1.11
2023-02-05T02:30:15.153Z,1.11
2023-02-05T02:30:45.997Z,1.11
2023-02-05T02:31:17.912Z,1.11
2023-02-05T02:31:49.848Z,1.11
2023-02-05T02:32:06.248Z,1.11
2023-02-05T02:32:49.837Z,1.11
2023-02-05T02:33:21.843Z,1.00
2023-02-05T02:33:53.718Z,1.00
2023-02-05T02:34:25.836Z,1.00
2023-02-05T02:34:57.740Z,1.00
2023-02-05T02:35:30.302Z,1.00
2023-02-05T02:36:01.990Z,1.00
2023-02-05T02:36:33.622Z,1.00
2023-02-05T02:37:05.740Z,1.00
2023-02-05T02:37:37.762Z,1.00
2023-02-05T02:38:09.681Z,1.00
2023-02-05T02:38:41.549Z,1.00
2023-02-05T02:39:13.685Z,1.00
2023-02-05T02:39:45.816Z,1.00
2023-02-05T02:40:17.714Z,1.00
2023-02-05T02:40:49.466Z,1.00
2023-02-05T02:41:21.493Z,1.00
2023-02-05T02:41:53.534Z,1.00
2023-02-05T02:42:25.248Z,1.00
2023-02-05T02:42:57.450Z,1.00
2023-02-05T02:43:13.594Z,1.00
2023-02-05T02:43:45.373Z,1.00
2023-02-05T02:44:29.644Z,1.00
2023-02-05T02:45:03.498Z,1.00
2023-02-05T02:45:33.576Z,1.00
2023-02-05T02:46:05.331Z,1.00
2023-02-05T02:46:37.358Z,1.00
2023-02-05T02:47:09.264Z,1.00
2023-02-05T02:47:41.257Z,1.00
2023-02-05T02:48:13.211Z,1.00
2023-02-05T02:48:45.198Z,1.11
2023-02-05T02:49:17.139Z,1.11
2023-02-05T02:49:49.074Z,1.11
2023-02-05T02:50:05.511Z,1.11
2023-02-05T02:50:49.187Z,1.22
2023-02-05T02:51:21.211Z,1.22
2023-02-05T02:51:53.055Z,1.22
2023-02-05T02:52:24.946Z,1.22
2023-02-05T02:52:57.054Z,1.22
2023-02-05T02:53:29.314Z,1.22
2023-02-05T02:54:00.861Z,1.22
2023-02-05T02:54:32.995Z,1.22
2023-02-05T02:55:05.349Z,1.22
2023-02-05T02:55:37.023Z,1.22
2023-02-05T02:56:08.728Z,1.22
2023-02-05T02:56:40.751Z,1.22
2023-02-05T02:57:12.851Z,1.22
2023-02-05T02:57:44.874Z,1.22
2023-02-05T02:58:16.758Z,1.22
2023-02-05T02:58:48.754Z,1.22
2023-02-05T02:59:04.883Z,1.22
2023-02-05T02:59:36.837Z,1.22
2023-02-05T02:59:52.835Z,1.22
2023-02-05T03:00:24.899Z,1.22
2023-02-05T03:00:56.807Z,1.22
2023-02-05T03:01:28.860Z,1.22
2023-02-05T03:02:00.849Z,1.22
2023-02-05T03:02:32.687Z,1.22
2023-02-05T03:03:04.778Z,1.22
2023-02-05T03:03:20.757Z,1.22
2023-02-05T03:03:52.444Z,1.22
2023-02-05T03:04:36.665Z,1.22
2023-02-05T03:05:08.667Z,1.22
2023-02-05T03:05:40.405Z,1.22
2023-02-05T03:06:12.462Z,1.22
2023-02-05T03:06:44.599Z,1.22
2023-02-05T03:07:16.270Z,1.22
2023-02-05T03:07:48.330Z,1.22
2023-02-05T03:08:04.499Z,1.22
2023-02-05T03:08:48.396Z,1.11
2023-02-05T03:09:20.463Z,1.11
2023-02-05T03:09:52.120Z,1.11
2023-02-05T03:10:24.549Z,1.11
2023-02-05T03:10:56.401Z,1.11
2023-02-05T03:11:28.138Z,1.11
2023-02-05T03:12:00.329Z,1.11
2023-02-05T03:12:32.163Z,1.00
2023-02-05T03:13:04.233Z,1.00
2023-02-05T03:13:36.391Z,1.00
2023-02-05T03:14:08.053Z,1.00
2023-02-05T03:14:40.216Z,1.00
2023-02-05T03:15:12.953Z,1.00
2023-02-05T03:15:44.217Z,1.00
2023-02-05T03:16:16.127Z,.88
2023-02-05T03:16:47.896Z,.88
2023-02-05T03:17:20.008Z,.88
2023-02-05T03:17:51.989Z,.88
2023-02-05T03:18:23.804Z,.88
2023-02-05T03:18:56.237Z,.88
2023-02-05T03:19:27.979Z,.88
2023-02-05T03:20:00.000Z,.88
2023-02-05T03:20:32.014Z,.88
2023-02-05T03:21:04.247Z,.88
2023-02-05T03:21:19.777Z,.88
2023-02-05T03:21:51.951Z,.77
2023-02-05T03:22:35.880Z,.77
2023-02-05T03:23:07.599Z,.77
2023-02-05T03:23:39.781Z,.77
2023-02-05T03:24:11.877Z,.77
2023-02-05T03:24:43.651Z,.77
2023-02-05T03:25:15.915Z,.77
2023-02-05T03:25:47.698Z,.88
2023-02-05T03:26:19.599Z,.88
2023-02-05T03:26:51.690Z,.88
2023-02-05T03:27:23.450Z,.88
2023-02-05T03:27:55.408Z,.88
2023-02-05T03:28:27.682Z,.88
2023-02-05T03:28:59.578Z,1.00
2023-02-05T03:29:31.411Z,1.00
2023-02-05T03:30:05.872Z,1.00
2023-02-05T03:30:19.562Z,1.00
2023-02-05T03:31:06.191Z,1.00
2023-02-05T03:31:36.410Z,1.00
2023-02-05T03:32:08.257Z,1.00
2023-02-05T03:32:40.055Z,1.00
2023-02-05T03:33:11.451Z,1.00
2023-02-05T03:33:43.368Z,1.00
2023-02-05T03:34:15.244Z,1.00
2023-02-05T03:34:47.287Z,1.00
2023-02-05T03:35:19.390Z,1.00
2023-02-05T03:35:51.547Z,.88
2023-02-05T03:36:22.996Z,.88
2023-02-05T03:36:55.059Z,.88
2023-02-05T03:37:27.244Z,.88
2023-02-05T03:37:59.124Z,.88
2023-02-05T03:38:31.065Z,.88
2023-02-05T03:39:03.674Z,.88
2023-02-05T03:39:19.119Z,.88
2023-02-05T03:39:51.066Z,.88
2023-02-05T03:40:35.253Z,.88
2023-02-05T03:41:07.050Z,.88
2023-02-05T03:41:38.910Z,.88
2023-02-05T03:42:10.914Z,.88
2023-02-05T03:42:42.966Z,.88
2023-02-05T03:43:14.784Z,.88
2023-02-05T03:43:46.832Z,1.00
2023-02-05T03:44:03.531Z,1.00
2023-02-05T03:44:46.783Z,1.00
2023-02-05T03:45:19.222Z,1.00
2023-02-05T03:45:50.691Z,1.00
2023-02-05T03:46:22.710Z,.88
2023-02-05T03:46:54.777Z,.88
2023-02-05T03:47:26.863Z,.88
2023-02-05T03:47:58.519Z,.88
2023-02-05T03:48:30.836Z,.88
2023-02-05T03:49:03.410Z,.88
2023-02-05T03:49:34.616Z,.88
2023-02-05T03:50:06.835Z,.88
2023-02-05T03:50:38.598Z,1.00
2023-02-05T03:51:10.636Z,1.00
2023-02-05T03:51:42.666Z,1.00
2023-02-05T03:52:14.640Z,1.00
2023-02-05T03:52:46.458Z,1.00
2023-02-05T03:53:03.450Z,1.00
2023-02-05T03:53:34.306Z,1.00
2023-02-05T03:53:50.529Z,1.00
2023-02-05T03:54:22.364Z,1.00
2023-02-05T03:54:54.391Z,1.00
2023-02-05T03:55:26.689Z,1.00
2023-02-05T03:55:58.435Z,1.11
2023-02-05T03:56:30.560Z,1.11
2023-02-05T03:57:02.965Z,1.11
2023-02-05T03:57:18.404Z,1.11
2023-02-05T03:57:50.117Z,1.11
2023-02-05T03:58:28.333Z,1.00
2023-02-05T03:59:00.284Z,1.00
2023-02-05T03:59:18.203Z,1.00
2023-02-05T03:59:50.319Z,1.00
2023-02-05T04:00:34.572Z,1.00
2023-02-05T04:01:06.400Z,1.00
2023-02-05T04:01:38.271Z,1.00
2023-02-05T04:02:10.054Z,1.00
2023-02-05T04:02:42.106Z,.88
2023-02-05T04:03:14.054Z,.88
2023-02-05T04:03:46.200Z,.88
2023-02-05T04:04:18.063Z,.88
2023-02-05T04:04:49.978Z,.88
2023-02-05T04:05:22.395Z,.77
2023-02-05T04:05:54.033Z,.77
2023-02-05T04:06:25.848Z,.77
2023-02-05T04:06:58.058Z,.77
2023-02-05T04:07:30.044Z,.77
2023-02-05T04:08:02.499Z,.77
2023-02-05T04:08:33.707Z,.77
2023-02-05T04:08:49.955Z,.77
2023-02-05T04:09:21.791Z,.77
2023-02-05T04:10:06.123Z,.77
2023-02-05T04:10:37.787Z,.77
2023-02-05T04:11:09.636Z,.77
2023-02-05T04:11:41.948Z,.77
2023-02-05T04:12:13.720Z,.77
2023-02-05T04:12:45.750Z,.77
2023-02-05T04:13:17.610Z,.77
2023-02-05T04:13:33.794Z,.77
2023-02-05T04:14:17.686Z,.77
2023-02-05T04:14:49.667Z,.77
2023-02-05T04:15:22.200Z,.77
2023-02-05T04:15:53.541Z,.77
2023-02-05T04:16:25.481Z,.77
2023-02-05T04:16:57.622Z,.77
2023-02-05T04:17:29.553Z,.77
2023-02-05T04:18:01.795Z,.72
2023-02-05T04:18:17.535Z,.72
2023-02-05T04:18:49.398Z,.72
2023-02-05T04:19:33.397Z,.72
2023-02-05T04:20:05.491Z,.72
2023-02-05T04:20:37.431Z,.72
2023-02-05T04:21:09.402Z,.72
2023-02-05T04:21:41.522Z,.72
2023-02-05T04:22:13.335Z,.72
2023-02-05T04:22:45.153Z,.72
2023-02-05T04:23:01.886Z,.72
2023-02-05T04:23:45.359Z,.72
2023-02-05T04:24:17.346Z,.72
2023-02-05T04:24:49.116Z,.72
2023-02-05T04:25:21.469Z,.72
2023-02-05T04:25:53.117Z,.72
2023-02-05T04:26:25.108Z,.72
2023-02-05T04:26:57.086Z,.72
2023-02-05T04:27:28.951Z,.72
2023-02-05T04:28:01.400Z,.72
2023-02-05T04:28:33.055Z,.72
2023-02-05T04:29:04.892Z,.72
2023-02-05T04:29:37.052Z,.72
2023-02-05T04:30:09.876Z,.72
2023-02-05T04:30:41.027Z,.72
2023-02-05T04:31:12.867Z,.72
2023-02-05T04:31:44.847Z,.72
2023-02-05T04:32:16.863Z,.72
2023-02-05T04:32:48.923Z,.72
2023-02-05T04:33:20.837Z,.72
2023-02-05T04:33:52.893Z,.61
2023-02-05T04:34:24.796Z,.61
2023-02-05T04:34:56.882Z,.72
2023-02-05T04:35:28.935Z,.72
2023-02-05T04:35:44.662Z,.72
2023-02-05T04:36:28.682Z,.72
2023-02-05T04:37:00.700Z,.72
2023-02-05T04:37:32.815Z,.72
2023-02-05T04:38:04.806Z,.72
2023-02-05T04:38:36.655Z,.61
2023-02-05T04:39:09.111Z,.61
2023-02-05T04:39:41.826Z,.61
2023-02-05T04:40:12.827Z,.61
2023-02-05T04:40:44.273Z,.61
2023-02-05T04:41:00.677Z,.61
2023-02-05T04:41:44.340Z,.61
2023-02-05T04:42:16.568Z,.61
2023-02-05T04:42:48.424Z,.61
2023-02-05T04:43:20.238Z,.61
2023-02-05T04:43:52.693Z,.61
2023-02-05T04:44:24.435Z,.61
2023-02-05T04:44:56.220Z,.61
2023-02-05T04:45:28.868Z,.61
2023-02-05T04:46:00.330Z,.61
2023-02-05T04:46:32.434Z,.61
2023-02-05T04:47:04.863Z,.61
2023-02-05T04:47:36.349Z,.61
2023-02-05T04:48:08.169Z,.61
2023-02-05T04:48:40.198Z,.50
2023-02-05T04:49:12.116Z,.50
2023-02-05T04:49:44.018Z,.50
2023-02-05T04:50:16.743Z,.50
2023-02-05T04:50:48.115Z,.50
2023-02-05T04:51:19.838Z,.38
2023-02-05T04:51:52.224Z,.38
2023-02-05T04:52:23.945Z,.38
2023-02-05T04:52:55.967Z,.38
2023-02-05T04:53:27.953Z,.38
2023-02-05T04:53:59.960Z,.27
2023-02-05T04:54:31.978Z,.27
2023-02-05T04:55:04.695Z,.27
2023-02-05T04:55:36.189Z,.27
2023-02-05T04:56:07.785Z,.27
2023-02-05T04:56:39.805Z,.27
2023-02-05T04:57:12.013Z,.27
2023-02-05T04:57:43.700Z,.27
2023-02-05T04:57:59.849Z,.27
2023-02-05T04:58:43.771Z,.27
2023-02-05T04:59:15.688Z,.27
2023-02-05T04:59:47.764Z,.27
2023-02-05T05:00:19.949Z,.27
2023-02-05T05:00:51.792Z,.27
2023-02-05T05:01:23.733Z,.27
2023-02-05T05:01:55.739Z,.27
2023-02-05T05:02:27.569Z,.27
2023-02-05T05:02:59.494Z,.27
2023-02-05T05:03:15.636Z,.27
2023-02-05T05:03:59.499Z,.27
2023-02-05T05:04:31.718Z,.27
2023-02-05T05:05:04.284Z,.27
2023-02-05T05:05:35.636Z,.27
2023-02-05T05:06:07.588Z,.27
2023-02-05T05:06:39.532Z,.27
2023-02-05T05:07:11.360Z,.27
2023-02-05T05:07:43.345Z,.27
2023-02-05T05:08:15.377Z,.22
2023-02-05T05:08:47.397Z,.22
2023-02-05T05:09:19.281Z,.22
2023-02-05T05:09:52.444Z,.22
2023-02-05T05:10:23.537Z,.22
2023-02-05T05:10:55.386Z,.27
2023-02-05T05:11:27.189Z,.27
2023-02-05T05:11:59.250Z,.27
2023-02-05T05:12:15.284Z,.27
2023-02-05T05:12:47.125Z,.22
2023-02-05T05:13:31.228Z,.22
2023-02-05T05:14:04.256Z,.22
2023-02-05T05:14:35.041Z,.22
2023-02-05T05:15:08.134Z,.22
2023-02-05T05:15:39.159Z,.22
2023-02-05T05:16:11.159Z,.22
2023-02-05T05:16:43.145Z,.11
2023-02-05T05:17:14.953Z,.11
2023-02-05T05:17:47.132Z,.11
2023-02-05T05:18:18.897Z,.11
2023-02-05T05:18:50.886Z,.11
2023-02-05T05:19:23.141Z,.11
2023-02-05T05:19:54.994Z,.11
2023-02-05T05:20:27.093Z,.11
2023-02-05T05:20:58.818Z,.11
2023-02-05T05:21:14.873Z,.11
2023-02-05T05:21:58.780Z,.11
2023-02-05T05:22:30.930Z,.11
2023-02-05T05:23:03.533Z,.11
2023-02-05T05:23:34.705Z,0
2023-02-05T05:24:06.904Z,0
2023-02-05T05:24:38.785Z,0
2023-02-05T05:25:10.982Z,0
2023-02-05T05:25:42.826Z,0
2023-02-05T05:26:14.581Z,0
2023-02-05T05:26:46.835Z,0
2023-02-05T05:27:18.492Z,0
2023-02-05T05:27:50.480Z,0
2023-02-05T05:28:07.001Z,0
2023-02-05T05:28:38.417Z,0
2023-02-05T05:29:22.604Z,0
2023-02-05T05:29:54.420Z,0
2023-02-05T05:30:26.745Z,0
2023-02-05T05:30:58.577Z,0
2023-02-05T05:31:30.514Z,0
2023-02-05T05:32:02.930Z,0
2023-02-05T05:32:34.362Z,0
2023-02-05T05:33:06.485Z,0
2023-02-05T05:33:38.384Z,0
2023-02-05T05:34:10.267Z,0
2023-02-05T05:34:42.370Z,0
2023-02-05T05:34:58.401Z,0
2023-02-05T05:35:42.583Z,.11
2023-02-05T05:36:14.224Z,.11
2023-02-05T05:36:46.288Z,.11
2023-02-05T05:37:18.040Z,.11
2023-02-05T05:37:50.139Z,.11
2023-02-05T05:38:22.468Z,.11
2023-02-05T05:38:53.883Z,.11
2023-02-05T05:39:26.052Z,.11
2023-02-05T05:39:58.270Z,.11
2023-02-05T05:40:30.267Z,.11
2023-02-05T05:41:02.651Z,.11
2023-02-05T05:41:34.016Z,.11
2023-02-05T05:42:05.881Z,.11
2023-02-05T05:42:37.988Z,.11
2023-02-05T05:43:09.908Z,.11
2023-02-05T05:43:41.868Z,.11
2023-02-05T05:44:13.844Z,.11
2023-02-05T05:44:45.949Z,.11
2023-02-05T05:45:18.343Z,.11
2023-02-05T05:45:49.778Z,.22
2023-02-05T05:46:22.203Z,.22
2023-02-05T05:46:53.751Z,.22
2023-02-05T05:47:25.711Z,.22
2023-02-05T05:47:57.829Z,.22
2023-02-05T05:48:29.723Z,.22
2023-02-05T05:49:02.417Z,.22
2023-02-05T05:49:33.577Z,.22
2023-02-05T05:50:05.792Z,.22
2023-02-05T05:50:37.742Z,.22
2023-02-05T05:51:09.710Z,.27
2023-02-05T05:51:41.472Z,.27
2023-02-05T05:52:13.492Z,.27
2023-02-05T05:52:32.314Z,.27
2023-02-05T05:53:02.009Z,.27
2023-02-05T05:53:45.540Z,.27
2023-02-05T05:54:17.316Z,.27
2023-02-05T05:54:49.444Z,.27
2023-02-05T05:55:21.954Z,.27
2023-02-05T05:55:53.359Z,.27
2023-02-05T05:56:25.301Z,.27
2023-02-05T05:56:57.498Z,.27
2023-02-05T05:57:13.467Z,.27
2023-02-05T05:57:57.450Z,.27
2023-02-05T05:58:29.326Z,.27
2023-02-05T05:59:01.413Z,.27
2023-02-05T05:59:33.030Z,.27
2023-02-05T06:00:06.630Z,.27
2023-02-05T06:00:37.420Z,.27
2023-02-05T06:01:08.996Z,.27
2023-02-05T06:01:41.061Z,.27
2023-02-05T06:02:13.236Z,.27
2023-02-05T06:02:45.069Z,.27
2023-02-05T06:03:17.120Z,.27
2023-02-05T06:03:49.012Z,.27
2023-02-05T06:04:21.018Z,.27
2023-02-05T06:04:53.317Z,.27
2023-02-05T06:05:25.069Z,.27
2023-02-05T06:05:56.958Z,.22
2023-02-05T06:06:13.106Z,.22
2023-02-05T06:06:44.768Z,.22
2023-02-05T06:07:28.957Z,.22
2023-02-05T06:08:01.212Z,.22
2023-02-05T06:08:17.005Z,.22
2023-02-05T06:08:48.943Z,.22
2023-02-05T06:09:32.805Z,.22
2023-02-05T06:10:05.359Z,.11
2023-02-05T06:10:36.786Z,.11
2023-02-05T06:11:08.643Z,.11
2023-02-05T06:11:40.785Z,.11
2023-02-05T06:12:12.885Z,.11
2023-02-05T06:12:44.491Z,.11
2023-02-05T06:13:16.703Z,.11
2023-02-05T06:13:48.656Z,.11
2023-02-05T06:14:20.604Z,.22
2023-02-05T06:14:52.725Z,.22
2023-02-05T06:15:24.904Z,.22
2023-02-05T06:15:56.602Z,.22
2023-02-05T06:16:28.614Z,.22
2023-02-05T06:17:00.509Z,.22
2023-02-05T06:17:32.491Z,.22
2023-02-05T06:18:04.908Z,.22
2023-02-05T06:18:36.353Z,.22
2023-02-05T06:19:08.471Z,.22
2023-02-05T06:19:40.339Z,.22
2023-02-05T06:20:12.652Z,.22
2023-02-05T06:20:44.424Z,.22
2023-02-05T06:21:16.376Z,.22
2023-02-05T06:21:48.216Z,.22
2023-02-05T06:22:20.219Z,.22
2023-02-05T06:22:52.544Z,.22
2023-02-05T06:23:24.006Z,.22
2023-02-05T06:23:56.289Z,.22
2023-02-05T06:24:30.955Z,.22
2023-02-05T06:25:00.521Z,.22
2023-02-05T06:25:32.692Z,.22
2023-02-05T06:26:04.468Z,.22
2023-02-05T06:26:36.064Z,.22
2023-02-05T06:27:08.118Z,.22
2023-02-05T06:27:40.072Z,.22
2023-02-05T06:28:12.038Z,.22
2023-02-05T06:28:44.065Z,.22
2023-02-05T06:29:16.097Z,.22
2023-02-05T06:29:47.825Z,.22
2023-02-05T06:30:20.187Z,.22
2023-02-05T06:30:52.459Z,.22
2023-02-05T06:31:23.947Z,.22
2023-02-05T06:31:55.892Z,.22
2023-02-05T06:32:11.865Z,.22
2023-02-05T06:32:56.106Z,.22
2023-02-05T06:33:27.874Z,.22
2023-02-05T06:33:59.931Z,.22
2023-02-05T06:34:31.961Z,.22
2023-02-05T06:35:04.586Z,.22
2023-02-05T06:35:36.188Z,.22
2023-02-05T06:36:07.966Z,.22
2023-02-05T06:36:39.560Z,.27
2023-02-05T06:36:55.803Z,.27
2023-02-05T06:37:45.399Z,.27
2023-02-05T06:38:11.743Z,.27
2023-02-05T06:38:43.690Z,.27
2023-02-05T06:39:15.371Z,.27
2023-02-05T06:39:47.735Z,.27
2023-02-05T06:40:19.989Z,.27
2023-02-05T06:40:51.587Z,.27
2023-02-05T06:41:23.608Z,.27
2023-02-05T06:41:55.526Z,.38
2023-02-05T06:42:27.524Z,.38
2023-02-05T06:42:59.555Z,.38
2023-02-05T06:43:31.488Z,.38
2023-02-05T06:44:03.935Z,.38
2023-02-05T06:44:35.407Z,.38
2023-02-05T06:45:08.454Z,.38
2023-02-05T06:45:39.131Z,.38
2023-02-05T06:45:56.041Z,.38
2023-02-05T06:46:39.358Z,.38
2023-02-05T06:47:11.328Z,.38
2023-02-05T06:47:43.285Z,.38
2023-02-05T06:48:15.297Z,.38
2023-02-05T06:48:47.292Z,.27
2023-02-05T06:49:19.159Z,.27
2023-02-05T06:49:51.293Z,.27
2023-02-05T06:50:23.419Z,.27
2023-02-05T06:50:55.289Z,.27
2023-02-05T06:51:11.283Z,.27
2023-02-05T06:51:55.130Z,.27
2023-02-05T06:52:27.315Z,.27
2023-02-05T06:52:59.101Z,.27
2023-02-05T06:53:31.340Z,.27
2023-02-05T06:54:04.127Z,.27
2023-02-05T06:54:35.173Z,.27
2023-02-05T06:55:07.300Z,.27
2023-02-05T06:55:38.944Z,.27
2023-02-05T06:56:11.213Z,.27
2023-02-05T06:56:43.230Z,.27
2023-02-05T06:57:14.865Z,.27
2023-02-05T06:57:47.299Z,.38
2023-02-05T06:58:18.979Z,.38
2023-02-05T06:58:50.962Z,.38
2023-02-05T06:59:23.038Z,.50
2023-02-05T06:59:54.991Z,.50
2023-02-05T07:00:27.266Z,.50
2023-02-05T07:00:58.980Z,.50
2023-02-05T07:01:30.697Z,.50
2023-02-05T07:02:03.717Z,.61
2023-02-05T07:02:34.803Z,.61
2023-02-05T07:03:06.849Z,.61
2023-02-05T07:03:38.700Z,.61
2023-02-05T07:03:54.804Z,.61
2023-02-05T07:04:38.720Z,.61
2023-02-05T07:05:10.984Z,.61
2023-02-05T07:05:42.792Z,.61
2023-02-05T07:06:14.675Z,.61
2023-02-05T07:06:46.970Z,.61
2023-02-05T07:07:18.562Z,.72
2023-02-05T07:07:50.629Z,.72
2023-02-05T07:08:22.623Z,.72
2023-02-05T07:08:54.455Z,.72